• Join FlightAware (Why Join?)
  • Login
  • US Flag 
05:32PM EDT


 

Airport Tracker/Info


-or-


 

Live Flight TrackerFlight Track Log ✈ QXE321 ✈ 24-May-2012 ✈ KGTF - KSEA

Flight Track Log - Related Links

Times and Time Zones

All times are in EDT time to prevent confusion due to time zone crossing. See the QXE321 flight status page for this flight to view local times or setup timezone preferences in your user account.

Time Position Orientation Groundspeed Altitude Reporting Facility
EDT Latitude Longitude Course Direction KTS MPH feet Rate Location/Type
09:15AM 47.4331 -111.4283 274° West 182 209 5,800  Level Salt Lake Center
09:20AM 47.4581 -111.9722 272° West 279 321 14,400 1,560 Climbing Salt Lake Center
09:21AM 47.4614 -112.0933 272° West 289 333 15,500 1,080 Climbing Salt Lake Center
09:22AM 47.4644 -112.2178 269° West 298 343 16,700 1,080 Climbing Salt Lake Center
09:23AM 47.4628 -112.3444 272° West 306 352 17,800 1,020 Climbing Salt Lake Center
09:24AM 47.4656 -112.4711 271° West 309 356 18,900 960 Climbing Salt Lake Center
09:25AM 47.4669 -112.5989 271° West 310 357 19,800 1,020 Climbing Salt Lake Center
09:26AM 47.4681 -112.7267 270° West 311 358 21,000 1,020 Climbing Salt Lake Center
09:28AM 47.4686 -112.8522 271° West 309 356 22,000 960 Climbing Salt Lake Center
09:29AM 47.4694 -112.9786 271° West 303 349 23,000 840 Climbing Salt Lake Center
09:30AM 47.4708 -113.1028 272° West 302 348 23,800 480 Climbing Salt Lake Center
09:31AM 47.4736 -113.2564 269° West 309 356 24,000 60 Climbing Salt Lake Center
09:32AM 47.4719 -113.4022 270° West 343 395 24,000  Level Salt Lake Center
09:33AM 47.4719 -113.5400 270° West 346 398 24,000  Level Salt Lake Center
09:34AM 47.4725 -113.6872 270° West 355 409 24,000  Level Salt Lake Center
09:35AM 47.4728 -113.8328 270° West 355 409 24,000  Level Salt Lake Center
09:36AM 47.4725 -113.9783 269° West 354 407 24,000  Level Salt Lake Center
09:37AM 47.4711 -114.1208 270° West 350 403 24,000  Level Salt Lake Center
09:38AM 47.4708 -114.2669 270° West 352 405 24,000  Level Salt Lake Center
09:39AM 47.4706 -114.4131 269° West 354 407 24,000  Level Salt Lake Center
09:40AM 47.4692 -114.5914 269° West 359 413 24,000  Level Salt Lake Center
09:41AM 47.4678 -114.7417 269° West 362 417 24,000  Level Salt Lake Center
09:42AM 47.4667 -114.8936 269° West 364 419 24,000  Level Seattle Center
09:43AM 47.4647 -115.0433 269° West 366 421 24,000 -60 Level Salt Lake Center
09:44AM 47.4633 -115.1944 268° West 367 422 23,900  Descending Salt Lake Center
09:45AM 47.4606 -115.3436 269° West 366 421 24,000  Climbing Salt Lake Center
09:46AM 47.4575 -115.5236 270° West 366 421 24,000  Level Seattle Center
09:47AM 47.4569 -115.6750 276° West 367 422 24,000  Level Seattle Center
09:48AM 47.4683 -115.8258 275° West 368 423 24,000  Level Seattle Center
09:49AM 47.4775 -115.9753 275° West 368 423 24,000  Level Seattle Center
09:50AM 47.4867 -116.1256 274° West 369 425 24,000  Level Seattle Center
09:51AM 47.4942 -116.2764 275° West 369 425 24,000  Level Seattle Center
09:52AM 47.5025 -116.4294 275° West 371 427 24,000  Level Seattle Center
09:53AM 47.5114 -116.5808 275° West 371 427 24,000  Level Seattle Center
09:54AM 47.5203 -116.7308 274° West 369 425 24,000  Level Seattle Center
09:55AM 47.5281 -116.8828 275° West 370 426 24,000  Level Seattle Center
09:56AM 47.5364 -117.0325 274° West 369 425 24,000  Level Seattle Center
09:57AM 47.5439 -117.1939 274° West 366 421 24,000  Level Seattle Center
09:58AM 47.5511 -117.3433 276° West 364 419 24,000  Level Seattle Center
10:01AM 47.5797 -117.7900 279° West 363 418 24,000  Level Seattle Center
10:02AM 47.5981 -117.9672 277° West 366 421 24,000  Level Seattle Center
10:03AM 47.6100 -118.1150 278° West 363 418 24,000  Level Seattle Center
10:04AM 47.6236 -118.2619 278° West 362 417 24,000  Level Seattle Center
10:05AM 47.6375 -118.4100 278° West 362 417 24,000  Level Seattle Center
10:06AM 47.6506 -118.5569 277° West 362 417 24,000  Level Seattle Center
10:07AM 47.6628 -118.7042 278° West 361 415 24,000  Level Seattle Center
10:08AM 47.6761 -118.8517 277° West 362 417 24,000  Level Seattle Center
10:09AM 47.6883 -118.9972 277° West 359 413 24,000  Level Seattle Center
10:11AM 47.7008 -119.1411 277° West 355 409 24,000  Level Seattle Center
10:12AM 47.7125 -119.2842 277° West 353 406 24,000  Level Seattle Center
10:13AM 47.7236 -119.4267 277° West 350 403 24,000  Level Seattle Center
10:14AM 47.7369 -119.5978 277° West 349 402 24,000  Level Seattle Center
10:15AM 47.7489 -119.7428 277° West 353 406 24,000  Level Seattle Center
10:16AM 47.7608 -119.8889 276° West 356 410 24,000  Level Seattle Center
10:17AM 47.7714 -120.0347 276° West 356 410 24,000  Level Seattle Center
10:18AM 47.7817 -120.1806 277° West 357 411 24,000 -240 Level Seattle Center
10:19AM 47.7933 -120.3281 276° West 360 414 23,600 -720 Descending Seattle Center
10:20AM 47.8042 -120.4764 297° West 361 415 22,600 -1,020 Descending Seattle Center
10:21AM 47.8489 -120.6064 294° West 362 417 21,600 -1,020 Descending Seattle Center
10:22AM 47.8894 -120.7436 295° West 362 417 20,600 -1,080 Descending Seattle Center
10:23AM 47.9381 -120.9000 294° West 366 421 19,500 -1,020 Descending Seattle Center
10:24AM 47.9797 -121.0381 284° West 369 425 18,600 -960 Descending Seattle Center
10:25AM 48.0033 -121.1803 273° West 366 421 17,600 -1,080 Descending Seattle Center
10:25AM 48.0058 -121.2642 278° West 357 411 17,000 -1,020 Descending Seattle Center
10:26AM 48.0119 -121.3256 265° West 357 411 16,600 -1,200 Descending Seattle Center
10:26AM 48.0056 -121.4342 236° Southwest 356 410 15,700 -1,740 Descending Seattle Center
10:27AM 47.9544 -121.5467 237° Southwest 335 386 13,800 -1,680 Descending Seattle Center
10:28AM 47.9050 -121.6581 231° Southwest 321 369 12,400 -960 Descending Seattle Center
10:29AM 47.8519 -121.7544 220° Southwest 300 345 11,900 -840 Descending Seattle Center
10:30AM 47.7894 -121.8328 250° West 294 338 10,800 -1,200 Descending Seattle Center
10:31AM 47.7636 -121.9400 259° West 270 311 9,600 -1,440 Descending Seattle Center
10:32AM 47.7500 -122.0433 260° West 261 300 7,900 -1,920 Descending Seattle Center
10:33AM 47.7369 -122.1497 259° West 260 299 5,800 -1,380 Descending Seattle Center
10:35AM 47.7214 -122.2639 214° Southwest 248 285 5,000 -600 Descending Seattle Center
10:36AM 47.6719 -122.3142 181° South 222 255 4,600 -900 Descending Seattle Center
10:37AM 47.5903 -122.3172 180° South 204 235 2,900 -1,200 Descending Seattle Center
10:38AM 47.5592 -122.3175 182° South 190 219 2,300 -780 Descending Seattle Center
10:39AM 47.5131 -122.3197 180° South 121 139 1,500 -660 Descending Seattle Center
10:40AM 47.4842 -122.3194 178° South 117 135 900 -540 Descending Seattle Center
10:41AM 47.4483 -122.3175 178° South 115 132 400 -420 Descending Seattle Center